Time;durP1;ratioP1;P1;durP2;ratioP2;P2;SDS_P1;SDS_P2;PMS_P1;PMS_P2;Temp;Humidity;BMP_temperature;BMP_pressure;BME280_temperature;BME280_humidity;BME280_pressure;Samples;Min_cycle;Max_cycle;Signal;HPM_P1;HPM_P2
2021/08/20 00:01:28;;;;;;;5.00;4.50;;;;;;;20.30;45.54;94405.83;834281;71;32755;-77
2021/08/20 00:16:26;;;;;;;4.80;4.35;;;;;;;20.11;45.89;94403.36;834161;71;32692;-76
2021/08/20 00:31:24;;;;;;;3.85;3.55;;;;;;;19.98;46.23;94404.06;828693;71;32676;-76
2021/08/20 00:46:26;;;;;;;5.37;4.15;;;;;;;19.88;46.32;94407.27;834507;71;32634;-76
2021/08/20 01:01:21;;;;;;;4.17;3.75;;;;;;;19.74;46.38;94405.64;827362;71;32750;-75
2021/08/20 01:31:12;;;;;;;4.28;3.83;;;;;;;19.50;46.98;94397.30;828139;71;30219;-79
2021/08/20 01:32:17;;;;;;;4.85;4.45;;;;;;;19.44;47.14;94399.44;808664;73;26726;-76
2021/08/20 01:46:47;;;;;;;5.10;4.70;;;;;;;19.37;47.91;94403.29;809426;72;32748;-79
2021/08/20 02:01:20;;;;;;;4.65;4.25;;;;;;;19.29;48.78;94401.58;828224;71;29687;-76
2021/08/20 02:16:57;;;;;;;5.03;4.55;;;;;;;19.23;50.14;94394.98;794612;74;32849;-76
2021/08/20 02:31:21;;;;;;;5.00;4.60;;;;;;;19.14;50.46;94397.80;828603;71;32702;-76
2021/08/20 02:47:04;;;;;;;5.00;4.58;;;;;;;19.12;51.26;94400.03;813576;72;32827;-77
2021/08/20 03:16:09;;;;;;;5.20;4.62;;;;;;;21.42;48.80;94410.62;828188;71;30326;-77
2021/08/20 03:31:27;;;;;;;5.53;4.85;;;;;;;23.47;44.19;94411.61;828514;71;31964;-77
2021/08/20 03:46:27;;;;;;;5.67;5.10;;;;;;;24.13;41.36;94426.39;827485;71;32750;-75
2021/08/20 04:46:12;;;;;;;10.03;5.60;;;;;;;25.78;38.87;94473.73;828759;71;29769;-78
2021/08/20 05:01:12;;;;;;;6.60;5.77;;;;;;;26.01;38.13;94475.26;828299;71;30154;-78
2021/08/20 05:16:23;;;;;;;6.07;5.47;;;;;;;26.27;37.68;94486.16;834997;71;29692;-75
2021/08/20 05:31:29;;;;;;;8.27;5.97;;;;;;;26.36;37.08;94463.66;828362;71;32772;-75
2021/08/20 05:46:19;;;;;;;7.40;6.70;;;;;;;26.01;37.08;94496.77;828319;71;29542;-76
2021/08/20 06:01:17;;;;;;;6.77;6.13;;;;;;;25.51;38.81;94491.59;828114;71;30292;-77
2021/08/20 06:16:20;;;;;;;9.93;8.93;;;;;;;24.42;42.29;94496.25;833971;71;32802;-76
2021/08/20 06:31:19;;;;;;;9.90;8.90;;;;;;;23.30;45.60;94483.41;828924;71;32780;-77
2021/08/20 06:46:21;;;;;;;13.67;9.60;;;;;;;23.68;46.28;94487.34;835200;71;32804;-76
2021/08/20 07:01:30;;;;;;;9.70;8.27;;;;;;;24.76;44.76;94485.48;828529;71;32744;-77
2021/08/20 07:16:35;;;;;;;10.83;8.20;;;;;;;25.30;44.23;94483.52;828299;71;30131;-77
2021/08/20 07:31:18;;;;;;;7.27;6.67;;;;;;;25.10;45.16;94480.38;829786;71;29781;-76
2021/08/20 07:46:16;;;;;;;7.37;6.63;;;;;;;25.11;45.39;94480.59;828312;71;29763;-77
2021/08/20 08:01:20;;;;;;;7.87;7.20;;;;;;;25.62;44.92;94474.70;828177;71;32769;-77
2021/08/20 08:16:17;;;;;;;8.00;7.20;;;;;;;26.05;44.15;94476.02;827774;71;32639;-75
2021/08/20 08:31:19;;;;;;;8.53;7.73;;;;;;;26.31;43.74;94476.16;827689;71;33234;-76
2021/08/20 08:46:36;;;;;;;8.03;6.63;;;;;;;26.49;43.12;94459.36;827420;71;32756;-79
2021/08/20 09:16:11;;;;;;;8.00;7.30;;;;;;;;;;833929;71;30170;-77
2021/08/20 09:31:14;;;;;;;7.93;7.23;;;;;;;28.05;39.80;94431.58;828430;71;30221;-76
2021/08/20 09:46:15;;;;;;;8.27;7.47;;;;;;;28.52;39.23;93684.92;833956;71;30060;-78
2021/08/20 10:01:14;;;;;;;19.60;18.00;;;;;;;29.02;38.21;94425.76;834721;71;32715;-77
2021/08/20 10:16:35;;;;;;;9.70;8.80;;;;;;;29.37;37.76;94412.89;829800;71;32949;-78
2021/08/20 10:31:14;;;;;;;9.60;8.80;;;;;;;29.93;36.62;94395.53;835515;71;29636;-78
2021/08/20 10:46:37;;;;;;;9.77;8.80;;;;;;;29.32;37.34;94383.05;827444;71;32809;-76
2021/08/20 11:01:28;;;;;;;9.30;8.60;;;;;;;29.83;36.63;94372.74;834048;71;32658;-76
2021/08/20 11:16:41;;;;;;;9.73;8.83;;;;;;;30.15;36.37;94355.29;833275;71;31012;-76
2021/08/20 11:31:19;;;;;;;10.60;9.60;;;;;;;30.36;36.03;94357.41;834144;71;29310;-76
2021/08/20 11:46:46;;;;;;;10.93;9.93;;;;;;;30.42;35.75;94334.66;828156;71;30370;-76
2021/08/20 12:01:27;;;;;;;11.40;10.40;;;;;;;29.86;36.00;94319.89;828208;71;30788;-79
2021/08/20 12:16:12;;;;;;;11.47;10.47;;;;;;;29.51;36.53;94313.95;828297;71;29475;-76
2021/08/20 12:31:14;;;;;;;11.60;10.60;;;;;;;29.39;37.11;94289.47;833951;71;33072;-75
2021/08/20 12:46:37;;;;;;;12.00;10.80;;;;;;;29.41;37.10;94278.41;827351;71;33038;-76
2021/08/20 13:01:24;;;;;;;12.20;11.00;;;;;;;29.22;37.23;94270.46;828145;71;31982;-76
2021/08/20 13:16:19;;;;;;;12.40;11.30;;;;;;;29.45;36.82;94272.95;828480;71;30156;-78
2021/08/20 13:31:23;;;;;;;13.47;12.20;;;;;;;29.50;36.31;94269.75;834063;71;32826;-76
2021/08/20 13:46:24;;;;;;;14.60;13.30;;;;;;;29.61;35.79;94255.44;827723;71;32884;-78
2021/08/20 14:01:31;;;;;;;14.70;13.23;;;;;;;29.62;35.43;94253.48;826916;71;32752;-79
2021/08/20 14:16:21;;;;;;;14.10;12.77;;;;;;;29.73;35.42;94239.20;827520;71;32747;-77
2021/08/20 14:31:24;;;;;;;13.80;12.60;;;;;;;29.52;35.95;94236.29;828151;71;30044;-76
2021/08/20 14:46:27;;;;;;;13.10;12.00;;;;;;;28.98;36.68;94234.56;825467;71;33339;-78
2021/08/20 15:16:08;;;;;;;13.20;12.10;;;;;;;28.65;37.04;94235.70;834745;71;29402;-76
2021/08/20 15:31:08;;;;;;;14.53;13.10;;;;;;;28.50;37.08;94235.14;828510;71;29484;-77
2021/08/20 15:46:19;;;;;;;14.83;13.47;;;;;;;28.31;37.42;94236.56;827641;71;33158;-78
2021/08/20 16:01:16;;;;;;;13.00;11.90;;;;;;;28.13;37.51;94239.52;827518;71;32769;-77
2021/08/20 16:16:08;;;;;;;14.40;13.00;;;;;;;;;;834300;71;30591;-78
2021/08/20 16:31:14;;;;;;;13.60;12.40;;;;;;;27.94;38.21;94244.19;827836;71;32787;-78
2021/08/20 16:46:08;;;;;;;12.70;11.60;;;;;;;;;;828720;71;30380;-79
2021/08/20 17:01:21;;;;;;;12.93;11.70;;;;;;;;;;828185;71;30126;-78
2021/08/20 17:16:26;;;;;;;13.90;12.50;;;;;;;27.06;41.60;94267.08;834580;71;32523;-79
2021/08/20 17:31:17;;;;;;;13.20;11.97;;;;;;;26.84;42.07;94284.00;834175;71;29652;-79
2021/08/20 17:46:14;;;;;;;12.20;11.00;;;;;;;;;;820500;71;29694;-75
2021/08/20 18:01:18;;;;;;;13.03;11.90;;;;;;;26.00;43.91;94341.39;834031;71;31513;-77
2021/08/20 18:16:18;;;;;;;11.80;10.60;;;;;;;25.82;44.30;94359.48;827452;71;32795;-73
2021/08/20 18:31:10;;;;;;;11.93;10.83;;;;;;;25.55;44.62;94383.53;834051;71;29650;-77
2021/08/20 18:32:13;;;;;;;14.93;12.27;;;;;;;25.49;44.76;94377.59;821876;72;26318;-78
2021/08/20 18:46:27;;;;;;;12.27;10.97;;;;;;;25.14;45.60;94403.27;828392;71;32212;-75
2021/08/20 19:01:31;;;;;;;12.57;11.43;;;;;;;24.76;46.67;94420.31;828051;71;32736;-76
2021/08/20 19:16:34;;;;;;;11.93;10.83;;;;;;;24.46;46.92;94424.03;828033;71;30727;-76
2021/08/20 19:31:21;;;;;;;12.53;11.23;;;;;;;24.15;47.70;94432.16;833945;71;32688;-75
2021/08/20 19:46:19;;;;;;;12.80;11.63;;;;;;;23.97;48.10;94423.44;825597;71;32584;-76
2021/08/20 20:01:16;;;;;;;11.90;10.80;;;;;;;24.09;47.95;94428.30;833855;70;32585;-78
2021/08/20 20:16:16;;;;;;;13.60;10.40;;;;;;;23.60;48.90;94426.23;827370;71;32758;-78
2021/08/20 20:31:34;;;;;;;12.03;10.87;;;;;;;23.28;49.75;94432.14;826984;71;32693;-77
2021/08/20 20:46:20;;;;;;;11.30;10.30;;;;;;;23.02;50.37;94442.42;828353;71;29737;-78
2021/08/20 21:16:09;;;;;;;11.08;9.98;;;;;;;22.63;51.20;94458.03;828336;71;29283;-78
2021/08/20 21:31:08;;;;;;;11.57;10.48;;;;;;;22.39;51.60;94471.53;835154;71;28761;-76
2021/08/20 21:46:14;;;;;;;11.12;10.10;;;;;;;22.30;51.45;94467.02;834515;71;31711;-75
2021/08/20 22:01:15;;;;;;;11.50;9.80;;;;;;;22.25;51.17;94466.02;834068;71;31808;-78
2021/08/20 22:16:10;;;;;;;9.55;8.65;;;;;;;22.23;50.64;94477.60;829016;71;28625;-77
2021/08/20 22:31:18;;;;;;;10.45;9.45;;;;;;;22.21;50.91;94483.88;834023;71;31569;-77
2021/08/20 22:46:11;;;;;;;10.25;8.75;;;;;;;22.16;51.35;94484.97;829760;71;28674;-78
2021/08/20 22:47:17;;;;;;;10.53;9.40;;;;;;;22.12;51.43;94489.50;810600;73;25231;-78
2021/08/20 23:01:09;;;;;;;10.18;9.23;;;;;;;21.95;51.85;94477.41;828923;71;28688;-75
2021/08/20 23:16:29;;;;;;;8.90;8.20;;;;;;;21.86;52.08;94474.25;828107;71;31734;-75
2021/08/20 23:31:37;;;;;;;10.05;8.85;;;;;;;21.95;51.74;94461.95;828294;71;30322;-77
2021/08/20 23:46:25;;;;;;;11.00;9.95;;;;;;;21.99;52.06;94470.79;828386;71;31718;-75
